sensor_id;sensor_type;location;lat;lon;timestamp;P1;durP1;ratioP1;P2;durP2;ratioP2
52368;SDS011;38298;50.346;3.526;2022-12-16T00:02:20;55.63;;;22.65;;
52368;SDS011;38298;50.346;3.526;2022-12-16T00:04:46;50.45;;;22.50;;
52368;SDS011;38298;50.346;3.526;2022-12-16T00:07:12;55.17;;;21.88;;
52368;SDS011;38298;50.346;3.526;2022-12-16T00:09:38;54.70;;;21.13;;
52368;SDS011;38298;50.346;3.526;2022-12-16T00:12:04;54.92;;;20.83;;
52368;SDS011;38298;50.346;3.526;2022-12-16T00:14:30;55.50;;;20.33;;
52368;SDS011;38298;50.346;3.526;2022-12-16T00:16:57;49.80;;;20.20;;
52368;SDS011;38298;50.346;3.526;2022-12-16T00:19:23;49.72;;;22.40;;
52368;SDS011;38298;50.346;3.526;2022-12-16T00:21:49;47.92;;;20.98;;
52368;SDS011;38298;50.346;3.526;2022-12-16T00:24:15;54.03;;;21.02;;
52368;SDS011;38298;50.346;3.526;2022-12-16T00:26:41;50.88;;;22.05;;
52368;SDS011;38298;50.346;3.526;2022-12-16T00:29:07;55.95;;;22.45;;
52368;SDS011;38298;50.346;3.526;2022-12-16T00:31:35;55.45;;;23.08;;
52368;SDS011;38298;50.346;3.526;2022-12-16T00:34:01;44.28;;;20.83;;
52368;SDS011;38298;50.346;3.526;2022-12-16T00:36:27;49.47;;;20.83;;
52368;SDS011;38298;50.346;3.526;2022-12-16T00:38:53;55.97;;;23.65;;
52368;SDS011;38298;50.346;3.526;2022-12-16T00:41:18;49.92;;;20.83;;
52368;SDS011;38298;50.346;3.526;2022-12-16T00:43:45;51.88;;;20.58;;
52368;SDS011;38298;50.346;3.526;2022-12-16T00:46:12;47.10;;;20.88;;
52368;SDS011;38298;50.346;3.526;2022-12-16T00:48:38;48.20;;;20.15;;
52368;SDS011;38298;50.346;3.526;2022-12-16T00:51:04;45.22;;;19.25;;
52368;SDS011;38298;50.346;3.526;2022-12-16T00:53:30;46.90;;;19.40;;
52368;SDS011;38298;50.346;3.526;2022-12-16T00:56:05;46.70;;;19.52;;
52368;SDS011;38298;50.346;3.526;2022-12-16T00:58:32;44.90;;;19.70;;
52368;SDS011;38298;50.346;3.526;2022-12-16T01:00:58;50.88;;;20.48;;
52368;SDS011;38298;50.346;3.526;2022-12-16T01:03:24;46.28;;;19.67;;
52368;SDS011;38298;50.346;3.526;2022-12-16T01:05:50;46.60;;;20.25;;
52368;SDS011;38298;50.346;3.526;2022-12-16T01:08:16;44.53;;;19.27;;
52368;SDS011;38298;50.346;3.526;2022-12-16T01:10:48;46.83;;;19.55;;
52368;SDS011;38298;50.346;3.526;2022-12-16T01:13:14;45.63;;;19.75;;
52368;SDS011;38298;50.346;3.526;2022-12-16T01:15:40;42.55;;;18.83;;
52368;SDS011;38298;50.346;3.526;2022-12-16T01:18:06;41.22;;;18.52;;
52368;SDS011;38298;50.346;3.526;2022-12-16T01:20:32;46.08;;;18.92;;
52368;SDS011;38298;50.346;3.526;2022-12-16T01:22:58;43.15;;;18.83;;
52368;SDS011;38298;50.346;3.526;2022-12-16T01:25:24;46.65;;;19.70;;
52368;SDS011;38298;50.346;3.526;2022-12-16T01:27:51;42.83;;;19.70;;
52368;SDS011;38298;50.346;3.526;2022-12-16T01:30:17;48.53;;;18.75;;
52368;SDS011;38298;50.346;3.526;2022-12-16T01:32:43;51.17;;;20.05;;
52368;SDS011;38298;50.346;3.526;2022-12-16T01:35:09;58.53;;;20.23;;
52368;SDS011;38298;50.346;3.526;2022-12-16T01:37:35;47.58;;;20.73;;
52368;SDS011;38298;50.346;3.526;2022-12-16T01:40:01;40.28;;;18.67;;
52368;SDS011;38298;50.346;3.526;2022-12-16T01:42:27;53.60;;;20.60;;
52368;SDS011;38298;50.346;3.526;2022-12-16T01:44:55;40.25;;;18.75;;
52368;SDS011;38298;50.346;3.526;2022-12-16T01:47:22;45.25;;;20.38;;
52368;SDS011;38298;50.346;3.526;2022-12-16T01:49:51;49.42;;;20.33;;
52368;SDS011;38298;50.346;3.526;2022-12-16T01:52:21;48.85;;;21.83;;
52368;SDS011;38298;50.346;3.526;2022-12-16T01:54:49;49.92;;;20.85;;
52368;SDS011;38298;50.346;3.526;2022-12-16T01:57:23;46.10;;;20.23;;
52368;SDS011;38298;50.346;3.526;2022-12-16T01:59:51;50.42;;;21.85;;
52368;SDS011;38298;50.346;3.526;2022-12-16T02:02:19;58.95;;;20.83;;
52368;SDS011;38298;50.346;3.526;2022-12-16T02:04:45;50.13;;;21.90;;
52368;SDS011;38298;50.346;3.526;2022-12-16T02:07:30;55.70;;;22.15;;
52368;SDS011;38298;50.346;3.526;2022-12-16T02:09:56;56.78;;;22.02;;
52368;SDS011;38298;50.346;3.526;2022-12-16T02:14:52;55.33;;;23.40;;
52368;SDS011;38298;50.346;3.526;2022-12-16T02:20:36;49.25;;;19.65;;
52368;SDS011;38298;50.346;3.526;2022-12-16T02:28:40;50.75;;;20.40;;
52368;SDS011;38298;50.346;3.526;2022-12-16T02:36:14;42.65;;;20.15;;
52368;SDS011;38298;50.346;3.526;2022-12-16T02:41:21;51.28;;;21.40;;
52368;SDS011;38298;50.346;3.526;2022-12-16T02:43:49;43.38;;;20.02;;
52368;SDS011;38298;50.346;3.526;2022-12-16T02:46:16;42.65;;;20.40;;
52368;SDS011;38298;50.346;3.526;2022-12-16T02:48:43;55.28;;;21.88;;
52368;SDS011;38298;50.346;3.526;2022-12-16T02:51:09;60.90;;;23.45;;
52368;SDS011;38298;50.346;3.526;2022-12-16T02:53:36;51.25;;;21.52;;
52368;SDS011;38298;50.346;3.526;2022-12-16T02:56:05;57.40;;;21.95;;
52368;SDS011;38298;50.346;3.526;2022-12-16T02:58:55;50.67;;;22.30;;
52368;SDS011;38298;50.346;3.526;2022-12-16T03:03:50;46.85;;;22.27;;
52368;SDS011;38298;50.346;3.526;2022-12-16T03:06:18;51.28;;;22.17;;
52368;SDS011;38298;50.346;3.526;2022-12-16T03:08:45;54.53;;;22.98;;
52368;SDS011;38298;50.346;3.526;2022-12-16T03:11:12;53.15;;;23.63;;
52368;SDS011;38298;50.346;3.526;2022-12-16T03:13:43;65.75;;;25.38;;
52368;SDS011;38298;50.346;3.526;2022-12-16T03:16:11;57.88;;;23.52;;
52368;SDS011;38298;50.346;3.526;2022-12-16T03:18:39;61.80;;;23.75;;
52368;SDS011;38298;50.346;3.526;2022-12-16T03:21:07;55.90;;;25.13;;
52368;SDS011;38298;50.346;3.526;2022-12-16T03:23:39;55.42;;;24.75;;
52368;SDS011;38298;50.346;3.526;2022-12-16T03:26:09;59.05;;;25.73;;
52368;SDS011;38298;50.346;3.526;2022-12-16T03:31:47;66.90;;;26.95;;
52368;SDS011;38298;50.346;3.526;2022-12-16T03:34:08;60.63;;;25.58;;
52368;SDS011;38298;50.346;3.526;2022-12-16T03:36:36;53.78;;;25.23;;
52368;SDS011;38298;50.346;3.526;2022-12-16T03:39:03;55.20;;;25.02;;
52368;SDS011;38298;50.346;3.526;2022-12-16T03:41:30;65.50;;;24.98;;
52368;SDS011;38298;50.346;3.526;2022-12-16T03:43:57;63.08;;;26.38;;
52368;SDS011;38298;50.346;3.526;2022-12-16T03:46:23;60.25;;;25.08;;
52368;SDS011;38298;50.346;3.526;2022-12-16T03:48:49;56.08;;;24.80;;
52368;SDS011;38298;50.346;3.526;2022-12-16T03:51:17;56.30;;;23.75;;
52368;SDS011;38298;50.346;3.526;2022-12-16T03:53:43;61.00;;;24.52;;
52368;SDS011;38298;50.346;3.526;2022-12-16T03:56:09;66.65;;;25.70;;
52368;SDS011;38298;50.346;3.526;2022-12-16T03:58:36;62.65;;;26.30;;
52368;SDS011;38298;50.346;3.526;2022-12-16T04:01:04;69.28;;;25.27;;
52368;SDS011;38298;50.346;3.526;2022-12-16T04:03:30;57.72;;;24.40;;
52368;SDS011;38298;50.346;3.526;2022-12-16T04:05:56;62.75;;;27.65;;
52368;SDS011;38298;50.346;3.526;2022-12-16T04:08:22;73.40;;;25.17;;
52368;SDS011;38298;50.346;3.526;2022-12-16T04:10:52;71.28;;;24.88;;
52368;SDS011;38298;50.346;3.526;2022-12-16T04:13:50;61.03;;;25.20;;
52368;SDS011;38298;50.346;3.526;2022-12-16T04:16:35;63.15;;;24.20;;
52368;SDS011;38298;50.346;3.526;2022-12-16T04:19:25;71.78;;;26.45;;
52368;SDS011;38298;50.346;3.526;2022-12-16T04:22:14;57.58;;;24.70;;
52368;SDS011;38298;50.346;3.526;2022-12-16T04:25:04;63.72;;;24.92;;
52368;SDS011;38298;50.346;3.526;2022-12-16T04:27:31;67.97;;;24.13;;
52368;SDS011;38298;50.346;3.526;2022-12-16T04:29:57;64.30;;;25.60;;
52368;SDS011;38298;50.346;3.526;2022-12-16T04:32:42;57.78;;;23.80;;
52368;SDS011;38298;50.346;3.526;2022-12-16T04:35:27;61.05;;;26.42;;
52368;SDS011;38298;50.346;3.526;2022-12-16T04:38:11;58.13;;;23.38;;
52368;SDS011;38298;50.346;3.526;2022-12-16T04:40:56;64.30;;;24.58;;
52368;SDS011;38298;50.346;3.526;2022-12-16T04:43:40;60.60;;;25.10;;
52368;SDS011;38298;50.346;3.526;2022-12-16T04:46:25;56.53;;;22.67;;
52368;SDS011;38298;50.346;3.526;2022-12-16T04:49:09;57.15;;;24.33;;
52368;SDS011;38298;50.346;3.526;2022-12-16T04:51:54;61.40;;;25.60;;
52368;SDS011;38298;50.346;3.526;2022-12-16T04:54:38;63.85;;;25.83;;
52368;SDS011;38298;50.346;3.526;2022-12-16T04:57:23;70.13;;;25.40;;
52368;SDS011;38298;50.346;3.526;2022-12-16T05:00:07;59.58;;;26.08;;
52368;SDS011;38298;50.346;3.526;2022-12-16T05:02:52;59.67;;;26.23;;
52368;SDS011;38298;50.346;3.526;2022-12-16T05:05:37;59.35;;;24.98;;
52368;SDS011;38298;50.346;3.526;2022-12-16T05:08:22;51.95;;;23.88;;
52368;SDS011;38298;50.346;3.526;2022-12-16T05:11:06;58.45;;;23.00;;
52368;SDS011;38298;50.346;3.526;2022-12-16T05:13:51;53.70;;;23.73;;
52368;SDS011;38298;50.346;3.526;2022-12-16T05:16:36;57.13;;;24.08;;
52368;SDS011;38298;50.346;3.526;2022-12-16T05:19:20;61.42;;;24.35;;
52368;SDS011;38298;50.346;3.526;2022-12-16T05:22:05;53.30;;;23.55;;
52368;SDS011;38298;50.346;3.526;2022-12-16T05:24:49;57.25;;;24.23;;
52368;SDS011;38298;50.346;3.526;2022-12-16T05:27:34;46.63;;;22.15;;
52368;SDS011;38298;50.346;3.526;2022-12-16T05:30:18;54.53;;;24.23;;
52368;SDS011;38298;50.346;3.526;2022-12-16T05:33:03;51.08;;;22.27;;
52368;SDS011;38298;50.346;3.526;2022-12-16T05:35:47;50.13;;;22.17;;
52368;SDS011;38298;50.346;3.526;2022-12-16T05:38:32;60.50;;;22.27;;
52368;SDS011;38298;50.346;3.526;2022-12-16T05:41:17;48.72;;;21.80;;
52368;SDS011;38298;50.346;3.526;2022-12-16T05:44:01;51.90;;;21.88;;
52368;SDS011;38298;50.346;3.526;2022-12-16T05:46:46;50.97;;;21.95;;
52368;SDS011;38298;50.346;3.526;2022-12-16T05:49:30;55.40;;;23.05;;
52368;SDS011;38298;50.346;3.526;2022-12-16T05:52:15;52.58;;;22.92;;
52368;SDS011;38298;50.346;3.526;2022-12-16T05:54:59;47.17;;;21.33;;
52368;SDS011;38298;50.346;3.526;2022-12-16T05:57:47;53.28;;;22.60;;
52368;SDS011;38298;50.346;3.526;2022-12-16T06:00:32;44.35;;;21.88;;
52368;SDS011;38298;50.346;3.526;2022-12-16T06:03:16;53.95;;;21.63;;
52368;SDS011;38298;50.346;3.526;2022-12-16T06:06:01;49.72;;;21.15;;
52368;SDS011;38298;50.346;3.526;2022-12-16T06:08:45;52.67;;;21.27;;
52368;SDS011;38298;50.346;3.526;2022-12-16T06:11:30;52.83;;;21.38;;
52368;SDS011;38298;50.346;3.526;2022-12-16T06:14:14;54.00;;;21.40;;
52368;SDS011;38298;50.346;3.526;2022-12-16T06:16:59;47.25;;;20.95;;
52368;SDS011;38298;50.346;3.526;2022-12-16T06:19:43;58.95;;;22.08;;
52368;SDS011;38298;50.346;3.526;2022-12-16T06:22:28;50.00;;;22.20;;
52368;SDS011;38298;50.346;3.526;2022-12-16T06:25:13;47.75;;;21.42;;
52368;SDS011;38298;50.346;3.526;2022-12-16T06:27:57;51.50;;;23.33;;
52368;SDS011;38298;50.346;3.526;2022-12-16T06:30:42;61.97;;;22.95;;
52368;SDS011;38298;50.346;3.526;2022-12-16T06:33:26;49.70;;;22.48;;
52368;SDS011;38298;50.346;3.526;2022-12-16T06:36:13;48.80;;;22.00;;
52368;SDS011;38298;50.346;3.526;2022-12-16T06:38:58;53.08;;;22.92;;
52368;SDS011;38298;50.346;3.526;2022-12-16T06:41:43;54.40;;;21.98;;
52368;SDS011;38298;50.346;3.526;2022-12-16T06:44:27;58.38;;;23.75;;
52368;SDS011;38298;50.346;3.526;2022-12-16T06:47:12;55.03;;;22.00;;
52368;SDS011;38298;50.346;3.526;2022-12-16T06:49:57;58.90;;;22.67;;
52368;SDS011;38298;50.346;3.526;2022-12-16T06:52:44;52.83;;;22.67;;
52368;SDS011;38298;50.346;3.526;2022-12-16T06:55:29;49.90;;;21.73;;
52368;SDS011;38298;50.346;3.526;2022-12-16T06:58:14;47.00;;;20.98;;
52368;SDS011;38298;50.346;3.526;2022-12-16T07:00:59;51.67;;;21.67;;
52368;SDS011;38298;50.346;3.526;2022-12-16T07:03:43;50.88;;;22.70;;
52368;SDS011;38298;50.346;3.526;2022-12-16T07:06:28;58.72;;;23.75;;
52368;SDS011;38298;50.346;3.526;2022-12-16T07:09:12;50.25;;;21.60;;
52368;SDS011;38298;50.346;3.526;2022-12-16T07:11:57;59.50;;;23.42;;
52368;SDS011;38298;50.346;3.526;2022-12-16T07:14:42;46.70;;;21.27;;
52368;SDS011;38298;50.346;3.526;2022-12-16T07:17:26;52.10;;;23.25;;
52368;SDS011;38298;50.346;3.526;2022-12-16T07:20:11;61.40;;;24.13;;
52368;SDS011;38298;50.346;3.526;2022-12-16T07:22:55;57.97;;;23.08;;
52368;SDS011;38298;50.346;3.526;2022-12-16T07:25:48;54.85;;;24.70;;
52368;SDS011;38298;50.346;3.526;2022-12-16T07:28:33;50.72;;;23.90;;
52368;SDS011;38298;50.346;3.526;2022-12-16T07:31:17;55.35;;;23.88;;
52368;SDS011;38298;50.346;3.526;2022-12-16T07:34:02;56.80;;;24.80;;
52368;SDS011;38298;50.346;3.526;2022-12-16T07:36:46;59.85;;;25.30;;
52368;SDS011;38298;50.346;3.526;2022-12-16T07:39:31;62.67;;;24.85;;
52368;SDS011;38298;50.346;3.526;2022-12-16T07:42:16;57.95;;;25.33;;
52368;SDS011;38298;50.346;3.526;2022-12-16T07:45:00;57.58;;;25.90;;
52368;SDS011;38298;50.346;3.526;2022-12-16T07:47:46;56.13;;;24.98;;
52368;SDS011;38298;50.346;3.526;2022-12-16T07:50:30;60.58;;;23.85;;
52368;SDS011;38298;50.346;3.526;2022-12-16T07:53:15;58.25;;;25.90;;
52368;SDS011;38298;50.346;3.526;2022-12-16T07:56:00;60.35;;;24.50;;
52368;SDS011;38298;50.346;3.526;2022-12-16T07:58:44;63.80;;;24.65;;
52368;SDS011;38298;50.346;3.526;2022-12-16T08:01:29;55.97;;;24.75;;
52368;SDS011;38298;50.346;3.526;2022-12-16T08:04:13;51.45;;;24.67;;
52368;SDS011;38298;50.346;3.526;2022-12-16T08:06:58;60.60;;;25.30;;
52368;SDS011;38298;50.346;3.526;2022-12-16T08:09:42;57.50;;;25.13;;
52368;SDS011;38298;50.346;3.526;2022-12-16T08:12:27;62.47;;;26.35;;
52368;SDS011;38298;50.346;3.526;2022-12-16T08:15:14;63.00;;;26.70;;
52368;SDS011;38298;50.346;3.526;2022-12-16T08:17:59;65.70;;;26.52;;
52368;SDS011;38298;50.346;3.526;2022-12-16T08:20:44;61.72;;;26.88;;
52368;SDS011;38298;50.346;3.526;2022-12-16T08:23:28;64.47;;;28.30;;
52368;SDS011;38298;50.346;3.526;2022-12-16T08:26:13;74.90;;;27.63;;
52368;SDS011;38298;50.346;3.526;2022-12-16T08:28:57;78.88;;;29.98;;
52368;SDS011;38298;50.346;3.526;2022-12-16T08:31:42;70.25;;;28.45;;
52368;SDS011;38298;50.346;3.526;2022-12-16T08:34:27;67.10;;;27.38;;
52368;SDS011;38298;50.346;3.526;2022-12-16T08:37:14;65.70;;;27.50;;
52368;SDS011;38298;50.346;3.526;2022-12-16T08:39:59;64.93;;;27.17;;
52368;SDS011;38298;50.346;3.526;2022-12-16T08:42:43;60.45;;;27.33;;
52368;SDS011;38298;50.346;3.526;2022-12-16T08:45:28;72.80;;;28.13;;
52368;SDS011;38298;50.346;3.526;2022-12-16T08:48:12;67.45;;;27.40;;
52368;SDS011;38298;50.346;3.526;2022-12-16T08:51:00;81.03;;;28.52;;
52368;SDS011;38298;50.346;3.526;2022-12-16T08:53:44;77.97;;;29.15;;
52368;SDS011;38298;50.346;3.526;2022-12-16T08:56:29;78.85;;;28.90;;
52368;SDS011;38298;50.346;3.526;2022-12-16T08:59:14;74.05;;;28.17;;
52368;SDS011;38298;50.346;3.526;2022-12-16T09:01:58;84.28;;;28.10;;
52368;SDS011;38298;50.346;3.526;2022-12-16T09:04:43;72.25;;;28.65;;
52368;SDS011;38298;50.346;3.526;2022-12-16T09:07:27;70.38;;;28.73;;
52368;SDS011;38298;50.346;3.526;2022-12-16T09:10:12;73.88;;;28.77;;
52368;SDS011;38298;50.346;3.526;2022-12-16T09:13:07;81.93;;;28.10;;
52368;SDS011;38298;50.346;3.526;2022-12-16T09:15:51;81.20;;;27.38;;
52368;SDS011;38298;50.346;3.526;2022-12-16T09:18:36;87.97;;;29.15;;
52368;SDS011;38298;50.346;3.526;2022-12-16T09:21:21;90.57;;;30.63;;
52368;SDS011;38298;50.346;3.526;2022-12-16T09:24:05;97.47;;;30.55;;
52368;SDS011;38298;50.346;3.526;2022-12-16T09:26:50;92.35;;;31.45;;
52368;SDS011;38298;50.346;3.526;2022-12-16T09:29:35;98.30;;;29.70;;
52368;SDS011;38298;50.346;3.526;2022-12-16T09:32:19;92.95;;;31.35;;
52368;SDS011;38298;50.346;3.526;2022-12-16T09:35:04;87.35;;;31.23;;
52368;SDS011;38298;50.346;3.526;2022-12-16T09:37:48;83.68;;;29.92;;
52368;SDS011;38298;50.346;3.526;2022-12-16T09:40:33;85.40;;;30.35;;
52368;SDS011;38298;50.346;3.526;2022-12-16T09:52:28;61.88;;;22.95;;
52368;SDS011;38298;50.346;3.526;2022-12-16T09:58:28;58.33;;;22.10;;
52368;SDS011;38298;50.346;3.526;2022-12-16T10:01:14;67.72;;;24.25;;
52368;SDS011;38298;50.346;3.526;2022-12-16T10:03:59;65.43;;;23.25;;
52368;SDS011;38298;50.346;3.526;2022-12-16T10:06:44;80.38;;;23.55;;
52368;SDS011;38298;50.346;3.526;2022-12-16T10:13:36;64.75;;;21.60;;
52368;SDS011;38298;50.346;3.526;2022-12-16T10:15:53;60.10;;;21.58;;
52368;SDS011;38298;50.346;3.526;2022-12-16T10:18:43;62.17;;;22.23;;
52368;SDS011;38298;50.346;3.526;2022-12-16T10:21:52;65.95;;;22.48;;
52368;SDS011;38298;50.346;3.526;2022-12-16T10:27:33;54.58;;;21.58;;
52368;SDS011;38298;50.346;3.526;2022-12-16T10:30:22;59.85;;;23.65;;
52368;SDS011;38298;50.346;3.526;2022-12-16T10:33:08;62.15;;;23.23;;
52368;SDS011;38298;50.346;3.526;2022-12-16T10:35:54;59.88;;;22.80;;
52368;SDS011;38298;50.346;3.526;2022-12-16T10:38:48;59.65;;;21.73;;
52368;SDS011;38298;50.346;3.526;2022-12-16T10:41:35;72.45;;;24.20;;
52368;SDS011;38298;50.346;3.526;2022-12-16T10:44:45;56.55;;;22.42;;
52368;SDS011;38298;50.346;3.526;2022-12-16T10:47:31;59.75;;;23.80;;
52368;SDS011;38298;50.346;3.526;2022-12-16T10:50:15;66.18;;;23.58;;
52368;SDS011;38298;50.346;3.526;2022-12-16T10:53:01;75.60;;;24.13;;
52368;SDS011;38298;50.346;3.526;2022-12-16T10:55:48;76.45;;;24.17;;
52368;SDS011;38298;50.346;3.526;2022-12-16T10:58:41;62.53;;;23.20;;
52368;SDS011;38298;50.346;3.526;2022-12-16T11:01:26;70.40;;;23.05;;
52368;SDS011;38298;50.346;3.526;2022-12-16T11:04:32;64.18;;;22.88;;
52368;SDS011;38298;50.346;3.526;2022-12-16T11:07:31;61.92;;;24.35;;
52368;SDS011;38298;50.346;3.526;2022-12-16T11:10:23;71.28;;;23.50;;
52368;SDS011;38298;50.346;3.526;2022-12-16T11:16:13;70.38;;;23.67;;
52368;SDS011;38298;50.346;3.526;2022-12-16T11:18:58;70.28;;;23.13;;
52368;SDS011;38298;50.346;3.526;2022-12-16T11:21:44;69.88;;;25.65;;
52368;SDS011;38298;50.346;3.526;2022-12-16T11:24:29;70.55;;;24.52;;
52368;SDS011;38298;50.346;3.526;2022-12-16T11:32:56;70.97;;;24.35;;
52368;SDS011;38298;50.346;3.526;2022-12-16T11:35:46;67.07;;;24.50;;
52368;SDS011;38298;50.346;3.526;2022-12-16T11:38:35;68.80;;;25.03;;
52368;SDS011;38298;50.346;3.526;2022-12-16T11:41:25;68.65;;;24.90;;
52368;SDS011;38298;50.346;3.526;2022-12-16T11:44:19;64.30;;;24.60;;
52368;SDS011;38298;50.346;3.526;2022-12-16T11:47:08;59.78;;;23.73;;
52368;SDS011;38298;50.346;3.526;2022-12-16T11:49:55;59.03;;;23.23;;
52368;SDS011;38298;50.346;3.526;2022-12-16T11:52:42;61.08;;;23.63;;
52368;SDS011;38298;50.346;3.526;2022-12-16T11:55:30;59.60;;;23.73;;
52368;SDS011;38298;50.346;3.526;2022-12-16T11:58:28;67.13;;;24.70;;
52368;SDS011;38298;50.346;3.526;2022-12-16T12:01:29;50.95;;;23.42;;
52368;SDS011;38298;50.346;3.526;2022-12-16T12:04:16;61.15;;;23.33;;
52368;SDS011;38298;50.346;3.526;2022-12-16T12:11:08;73.30;;;25.00;;
52368;SDS011;38298;50.346;3.526;2022-12-16T12:19:18;57.70;;;21.60;;
52368;SDS011;38298;50.346;3.526;2022-12-16T12:22:08;72.22;;;23.10;;
52368;SDS011;38298;50.346;3.526;2022-12-16T12:30:30;55.00;;;20.80;;
52368;SDS011;38298;50.346;3.526;2022-12-16T12:39:12;62.03;;;21.23;;
52368;SDS011;38298;50.346;3.526;2022-12-16T12:47:33;53.85;;;21.27;;
52368;SDS011;38298;50.346;3.526;2022-12-16T12:50:24;60.42;;;21.25;;
52368;SDS011;38298;50.346;3.526;2022-12-16T12:56:04;55.63;;;21.75;;
52368;SDS011;38298;50.346;3.526;2022-12-16T12:58:49;65.88;;;21.75;;
52368;SDS011;38298;50.346;3.526;2022-12-16T13:01:35;60.47;;;21.40;;
52368;SDS011;38298;50.346;3.526;2022-12-16T13:04:21;53.03;;;19.55;;
52368;SDS011;38298;50.346;3.526;2022-12-16T13:07:07;59.30;;;20.77;;
52368;SDS011;38298;50.346;3.526;2022-12-16T13:13:19;58.03;;;21.17;;
52368;SDS011;38298;50.346;3.526;2022-12-16T13:16:12;51.60;;;20.15;;
52368;SDS011;38298;50.346;3.526;2022-12-16T13:22:00;56.10;;;21.20;;
52368;SDS011;38298;50.346;3.526;2022-12-16T13:24:50;57.75;;;20.33;;
52368;SDS011;38298;50.346;3.526;2022-12-16T13:27:49;57.25;;;20.40;;
52368;SDS011;38298;50.346;3.526;2022-12-16T13:30:35;53.85;;;20.00;;
52368;SDS011;38298;50.346;3.526;2022-12-16T13:33:32;53.72;;;19.52;;
52368;SDS011;38298;50.346;3.526;2022-12-16T13:36:18;57.15;;;21.08;;
52368;SDS011;38298;50.346;3.526;2022-12-16T13:39:22;52.53;;;19.77;;
52368;SDS011;38298;50.346;3.526;2022-12-16T13:45:31;54.42;;;20.52;;
52368;SDS011;38298;50.346;3.526;2022-12-16T13:54:16;58.88;;;21.60;;
52368;SDS011;38298;50.346;3.526;2022-12-16T13:57:01;59.08;;;20.83;;
52368;SDS011;38298;50.346;3.526;2022-12-16T13:59:49;48.88;;;20.75;;
52368;SDS011;38298;50.346;3.526;2022-12-16T14:02:38;60.35;;;21.85;;
52368;SDS011;38298;50.346;3.526;2022-12-16T14:05:27;55.97;;;20.35;;
52368;SDS011;38298;50.346;3.526;2022-12-16T14:08:14;56.45;;;21.63;;
52368;SDS011;38298;50.346;3.526;2022-12-16T14:15:10;57.33;;;20.40;;
52368;SDS011;38298;50.346;3.526;2022-12-16T14:17:32;57.92;;;20.52;;
52368;SDS011;38298;50.346;3.526;2022-12-16T14:20:20;51.25;;;20.35;;
52368;SDS011;38298;50.346;3.526;2022-12-16T14:26:10;56.10;;;19.50;;
52368;SDS011;38298;50.346;3.526;2022-12-16T14:28:56;53.17;;;21.33;;
52368;SDS011;38298;50.346;3.526;2022-12-16T14:31:42;58.17;;;18.92;;
52368;SDS011;38298;50.346;3.526;2022-12-16T14:40:28;56.83;;;20.65;;
52368;SDS011;38298;50.346;3.526;2022-12-16T14:43:30;60.50;;;20.73;;
52368;SDS011;38298;50.346;3.526;2022-12-16T14:46:26;55.22;;;20.80;;
52368;SDS011;38298;50.346;3.526;2022-12-16T14:49:21;55.28;;;20.25;;
52368;SDS011;38298;50.346;3.526;2022-12-16T14:52:25;59.22;;;21.92;;
52368;SDS011;38298;50.346;3.526;2022-12-16T14:58:11;65.32;;;22.08;;
52368;SDS011;38298;50.346;3.526;2022-12-16T15:00:57;62.67;;;22.25;;
52368;SDS011;38298;50.346;3.526;2022-12-16T15:03:44;61.83;;;22.08;;
52368;SDS011;38298;50.346;3.526;2022-12-16T15:09:44;57.90;;;22.58;;
52368;SDS011;38298;50.346;3.526;2022-12-16T15:12:31;67.03;;;21.65;;
52368;SDS011;38298;50.346;3.526;2022-12-16T15:15:18;64.55;;;21.42;;
52368;SDS011;38298;50.346;3.526;2022-12-16T15:18:04;64.50;;;22.65;;
52368;SDS011;38298;50.346;3.526;2022-12-16T15:20:50;62.90;;;21.05;;
52368;SDS011;38298;50.346;3.526;2022-12-16T15:23:43;64.63;;;22.02;;
52368;SDS011;38298;50.346;3.526;2022-12-16T15:26:29;68.55;;;22.60;;
52368;SDS011;38298;50.346;3.526;2022-12-16T15:35:09;63.72;;;22.80;;
52368;SDS011;38298;50.346;3.526;2022-12-16T15:37:53;64.22;;;21.02;;
52368;SDS011;38298;50.346;3.526;2022-12-16T15:40:39;61.63;;;21.63;;
52368;SDS011;38298;50.346;3.526;2022-12-16T15:43:28;61.78;;;21.30;;
52368;SDS011;38298;50.346;3.526;2022-12-16T15:46:23;61.25;;;21.40;;
52368;SDS011;38298;50.346;3.526;2022-12-16T15:58:13;61.78;;;20.70;;
52368;SDS011;38298;50.346;3.526;2022-12-16T16:00:58;60.47;;;20.60;;
52368;SDS011;38298;50.346;3.526;2022-12-16T16:03:47;60.97;;;21.48;;
52368;SDS011;38298;50.346;3.526;2022-12-16T16:06:33;57.75;;;20.90;;
52368;SDS011;38298;50.346;3.526;2022-12-16T16:12:10;63.33;;;20.98;;
52368;SDS011;38298;50.346;3.526;2022-12-16T16:14:55;59.95;;;22.85;;
52368;SDS011;38298;50.346;3.526;2022-12-16T16:17:40;64.70;;;21.63;;
52368;SDS011;38298;50.346;3.526;2022-12-16T16:20:25;58.22;;;20.15;;
52368;SDS011;38298;50.346;3.526;2022-12-16T16:23:09;59.72;;;21.73;;
52368;SDS011;38298;50.346;3.526;2022-12-16T16:25:54;68.05;;;21.05;;
52368;SDS011;38298;50.346;3.526;2022-12-16T16:28:39;67.43;;;22.60;;
52368;SDS011;38298;50.346;3.526;2022-12-16T16:31:24;58.30;;;20.58;;
52368;SDS011;38298;50.346;3.526;2022-12-16T16:34:09;67.70;;;22.70;;
52368;SDS011;38298;50.346;3.526;2022-12-16T16:36:54;61.65;;;21.50;;
52368;SDS011;38298;50.346;3.526;2022-12-16T16:39:39;73.95;;;23.00;;
52368;SDS011;38298;50.346;3.526;2022-12-16T16:42:24;67.93;;;23.08;;
52368;SDS011;38298;50.346;3.526;2022-12-16T16:45:09;60.08;;;20.52;;
52368;SDS011;38298;50.346;3.526;2022-12-16T16:47:55;61.10;;;21.73;;
52368;SDS011;38298;50.346;3.526;2022-12-16T16:50:45;67.80;;;22.30;;
52368;SDS011;38298;50.346;3.526;2022-12-16T16:53:29;66.70;;;22.77;;
52368;SDS011;38298;50.346;3.526;2022-12-16T16:56:14;61.90;;;21.20;;
52368;SDS011;38298;50.346;3.526;2022-12-16T16:58:58;70.72;;;21.25;;
52368;SDS011;38298;50.346;3.526;2022-12-16T17:01:43;60.95;;;20.90;;
52368;SDS011;38298;50.346;3.526;2022-12-16T17:04:27;64.72;;;22.08;;
52368;SDS011;38298;50.346;3.526;2022-12-16T17:07:12;69.60;;;23.05;;
52368;SDS011;38298;50.346;3.526;2022-12-16T17:09:56;57.50;;;20.80;;
52368;SDS011;38298;50.346;3.526;2022-12-16T17:12:41;55.95;;;20.75;;
52368;SDS011;38298;50.346;3.526;2022-12-16T17:15:30;59.22;;;22.88;;
52368;SDS011;38298;50.346;3.526;2022-12-16T17:18:16;60.22;;;22.23;;
52368;SDS011;38298;50.346;3.526;2022-12-16T17:21:00;65.53;;;22.52;;
52368;SDS011;38298;50.346;3.526;2022-12-16T17:23:45;69.45;;;20.67;;
52368;SDS011;38298;50.346;3.526;2022-12-16T17:26:29;76.82;;;21.38;;
52368;SDS011;38298;50.346;3.526;2022-12-16T17:29:14;49.13;;;20.60;;
52368;SDS011;38298;50.346;3.526;2022-12-16T17:32:01;57.63;;;21.83;;
52368;SDS011;38298;50.346;3.526;2022-12-16T17:34:45;62.47;;;21.33;;
52368;SDS011;38298;50.346;3.526;2022-12-16T17:37:30;60.20;;;22.83;;
52368;SDS011;38298;50.346;3.526;2022-12-16T17:40:15;63.38;;;21.50;;
52368;SDS011;38298;50.346;3.526;2022-12-16T17:42:59;60.03;;;23.20;;
52368;SDS011;38298;50.346;3.526;2022-12-16T17:45:54;61.85;;;20.45;;
52368;SDS011;38298;50.346;3.526;2022-12-16T17:48:38;60.33;;;19.10;;
52368;SDS011;38298;50.346;3.526;2022-12-16T17:51:23;49.75;;;20.27;;
52368;SDS011;38298;50.346;3.526;2022-12-16T17:54:21;46.58;;;19.60;;
52368;SDS011;38298;50.346;3.526;2022-12-16T17:57:06;54.58;;;21.90;;
52368;SDS011;38298;50.346;3.526;2022-12-16T17:59:50;64.00;;;22.33;;